Airfield :
LOGIN :

Register | Disclaimer

   EN    FR    IT 

 










Legend :    VFR   Marginal VFR   IFR   Intensive IFR   Very Intensive IFR
Visi :
Ceiling :
>= 8 km
>= 3000ft
5 to 8 km
1000 to 3000 ft
1500m to 5 km
500 to 1000 ft
800 to 1500m
200 to 500 ft
< 800m
< 200 ft
Symbols :   Thunderstorms  Fog  Heavy snow  Heavy precipitations  Wind > 20 kt
SIGMETs :     Misc.  Thunderstorms  Icing  Turbulence  Mountain Waves  Volcanic Ashes







- Airport Elevation : 286 ft
- IATA code : TRF


ENTO - Sandefjord , Torp

CURRENT METAR :
  • 181850Z 01008KT 9999 BKN018 02/01 Q1040

EXPIRED METARs :
  • 181820Z 01007KT 9999 FEW020 01/01 Q1040
  • 181750Z 01008KT CAVOK 01/01 Q1040
  • 181720Z 36007KT CAVOK 01/01 Q1040
  • 181650Z 02008KT CAVOK 02/01 Q1040
  • 181620Z 01008KT CAVOK 02/01 Q1040

TAF TAF ENTO
Valid from the 18 at 18:00 until the 19 at 18:00 UTC


1818/1918 01010KT CAVOK
PROB30 1900/1912 BKN012
PROB40 1912/1918 BKN008
No reported NOTAMs for that airfield.



MET'MAP, your aeronautical weather chart ! - Copyright ORBIFLY December 2007 - Disclaimer

ORBIFLY MET'MAP TEAM :

Programming & Development : Alexandra Zaïnal
Concept & Development : Baudouin d'Aumeries
Co-Development & Prog : Marc-Olivier Méhu
Technical & hardware support : Manuel Goepfert

Contact : metmap@orbifly.com




SOURCES & CREDITS :

   NOAA